KBMT/BMT METAR and TAF weather

Enter ICAO airport designator
Station Type Date Time Source
KBMT METAR 2020/04/08 21:15 UTC NOAA

KBMT 082115Z AUTO 19005KT 10SM BKN023 OVC034 30/24 A2985 RMK AO2 T02970236


Station Type Date Time Source
KBMT Decoded METAR 2020/04/08 21:15 UTC NOAA

Station name not available
Apr 08, 2020 - 05:15 PM EDT / 2020.04.08 2115 UTC
Wind: from the S (190 degrees) at 6 MPH (5 KT):0
Visibility: 10 mile(s):0
Sky conditions: overcast
Temperature: 85.5 F (29.7 C)
Heat index: 93.4 F (34.1 C):1
Dew Point: 74.5 F (23.6 C)
Relative Humidity: 69%
Pressure (altimeter): 29.85 in. Hg (1010 hPa)
ob: KBMT 082115Z AUTO 19005KT 10SM BKN023 OVC034 30/24 A2985 RMK AO2 T02970236
cycle: 21

Station Type Date Time Source
KBMT TAF UTC NOAA

Error!

Example: see airport list